sensor_id;sensor_type;location;lat;lon;timestamp;pressure;altitude;pressure_sealevel;temperature;humidity
29941;BME280;16801;53.562;10.038;2022-10-17T00:01:53;101925.19;;;13.95;79.79
29941;BME280;16801;53.562;10.038;2022-10-17T00:05:15;101939.84;;;13.92;80.29
29941;BME280;16801;53.562;10.038;2022-10-17T00:08:36;101936.28;;;13.92;80.19
29941;BME280;16801;53.562;10.038;2022-10-17T00:11:59;101942.56;;;13.92;80.59
29941;BME280;16801;53.562;10.038;2022-10-17T00:15:21;101952.00;;;13.77;81.39
29941;BME280;16801;53.562;10.038;2022-10-17T00:18:43;101964.78;;;13.86;80.86
29941;BME280;16801;53.562;10.038;2022-10-17T00:22:05;101967.97;;;13.91;80.47
29941;BME280;16801;53.562;10.038;2022-10-17T00:25:26;101973.84;;;13.96;80.72
29941;BME280;16801;53.562;10.038;2022-10-17T00:28:48;101972.34;;;14.03;80.47
29941;BME280;16801;53.562;10.038;2022-10-17T00:32:09;101965.91;;;14.04;81.23
29941;BME280;16801;53.562;10.038;2022-10-17T00:35:30;101969.09;;;14.09;80.95
29941;BME280;16801;53.562;10.038;2022-10-17T00:38:54;101969.09;;;14.09;81.49
29941;BME280;16801;53.562;10.038;2022-10-17T00:42:15;101976.50;;;14.07;80.96
29941;BME280;16801;53.562;10.038;2022-10-17T00:45:36;101954.09;;;14.05;80.95
29941;BME280;16801;53.562;10.038;2022-10-17T00:48:59;101964.22;;;14.03;81.05
29941;BME280;16801;53.562;10.038;2022-10-17T00:52:24;101973.22;;;14.04;80.72
29941;BME280;16801;53.562;10.038;2022-10-17T00:55:49;101961.16;;;13.97;81.30
29941;BME280;16801;53.562;10.038;2022-10-17T00:59:11;101962.75;;;13.99;81.23
29941;BME280;16801;53.562;10.038;2022-10-17T01:02:33;101967.03;;;14.02;81.38
29941;BME280;16801;53.562;10.038;2022-10-17T01:05:54;101980.19;;;14.06;81.46
29941;BME280;16801;53.562;10.038;2022-10-17T01:09:15;101985.50;;;14.08;81.10
29941;BME280;16801;53.562;10.038;2022-10-17T01:12:51;101994.47;;;14.08;81.18
29941;BME280;16801;53.562;10.038;2022-10-17T01:16:18;101994.75;;;14.05;80.99
29941;BME280;16801;53.562;10.038;2022-10-17T01:19:58;101985.38;;;14.09;80.63
29941;BME280;16801;53.562;10.038;2022-10-17T01:23:49;101982.13;;;14.15;80.79
29941;BME280;16801;53.562;10.038;2022-10-17T01:27:35;101980.38;;;14.14;80.59
29941;BME280;16801;53.562;10.038;2022-10-17T01:31:08;101977.47;;;14.06;81.17
29941;BME280;16801;53.562;10.038;2022-10-17T01:34:33;101975.78;;;14.05;81.32
29941;BME280;16801;53.562;10.038;2022-10-17T01:38:03;101977.22;;;14.09;81.05
29941;BME280;16801;53.562;10.038;2022-10-17T01:41:34;101967.50;;;14.07;81.32
29941;BME280;16801;53.562;10.038;2022-10-17T01:45:00;101970.22;;;14.07;81.16
29941;BME280;16801;53.562;10.038;2022-10-17T01:48:26;101967.66;;;14.05;81.39
29941;BME280;16801;53.562;10.038;2022-10-17T01:51:55;101962.41;;;14.13;80.83
29941;BME280;16801;53.562;10.038;2022-10-17T01:55:19;101958.50;;;14.06;80.67
29941;BME280;16801;53.562;10.038;2022-10-17T01:58:46;101948.28;;;14.10;80.73
29941;BME280;16801;53.562;10.038;2022-10-17T02:02:13;101940.34;;;14.18;80.05
29941;BME280;16801;53.562;10.038;2022-10-17T02:05:38;101947.19;;;14.22;79.83
29941;BME280;16801;53.562;10.038;2022-10-17T02:08:59;101943.03;;;14.18;79.95
29941;BME280;16801;53.562;10.038;2022-10-17T02:12:30;101929.91;;;14.23;79.96
29941;BME280;16801;53.562;10.038;2022-10-17T02:16:11;101928.94;;;14.24;79.51
29941;BME280;16801;53.562;10.038;2022-10-17T02:19:40;101924.91;;;14.18;80.18
29941;BME280;16801;53.562;10.038;2022-10-17T02:23:11;101931.19;;;14.19;80.13
29941;BME280;16801;53.562;10.038;2022-10-17T02:26:40;101931.06;;;14.20;80.44
29941;BME280;16801;53.562;10.038;2022-10-17T02:30:07;101930.06;;;14.21;80.40
29941;BME280;16801;53.562;10.038;2022-10-17T02:33:34;101923.78;;;14.21;80.53
29941;BME280;16801;53.562;10.038;2022-10-17T02:36:59;101918.63;;;14.18;80.62
29941;BME280;16801;53.562;10.038;2022-10-17T02:40:23;101902.06;;;14.21;80.29
29941;BME280;16801;53.562;10.038;2022-10-17T02:43:46;101899.97;;;14.24;80.34
29941;BME280;16801;53.562;10.038;2022-10-17T02:47:12;101904.16;;;14.28;80.17
29941;BME280;16801;53.562;10.038;2022-10-17T02:50:42;101901.31;;;14.30;80.12
29941;BME280;16801;53.562;10.038;2022-10-17T02:54:11;101895.47;;;14.34;80.02
29941;BME280;16801;53.562;10.038;2022-10-17T02:57:37;101888.72;;;14.29;80.41
29941;BME280;16801;53.562;10.038;2022-10-17T03:00:59;101881.97;;;14.23;80.55
29941;BME280;16801;53.562;10.038;2022-10-17T03:04:20;101877.13;;;14.27;80.55
29941;BME280;16801;53.562;10.038;2022-10-17T03:07:41;101870.34;;;14.32;80.08
29941;BME280;16801;53.562;10.038;2022-10-17T03:11:02;101870.78;;;14.37;79.98
29941;BME280;16801;53.562;10.038;2022-10-17T03:14:25;101881.94;;;14.44;79.23
29941;BME280;16801;53.562;10.038;2022-10-17T03:17:45;101871.97;;;14.45;79.84
29941;BME280;16801;53.562;10.038;2022-10-17T03:21:06;101864.81;;;14.43;80.32
29941;BME280;16801;53.562;10.038;2022-10-17T03:24:28;101874.09;;;14.41;79.83
29941;BME280;16801;53.562;10.038;2022-10-17T03:27:49;101869.66;;;14.40;79.88
29941;BME280;16801;53.562;10.038;2022-10-17T03:31:14;101860.66;;;14.39;79.37
29941;BME280;16801;53.562;10.038;2022-10-17T03:34:36;101856.50;;;14.35;79.87
29941;BME280;16801;53.562;10.038;2022-10-17T03:37:57;101857.34;;;14.36;79.77
29941;BME280;16801;53.562;10.038;2022-10-17T03:45:04;101869.22;;;14.35;79.78
29941;BME280;16801;53.562;10.038;2022-10-17T03:48:28;101868.63;;;14.31;80.13
29941;BME280;16801;53.562;10.038;2022-10-17T03:51:49;101861.50;;;14.30;80.54
29941;BME280;16801;53.562;10.038;2022-10-17T03:55:11;101868.16;;;14.26;80.55
29941;BME280;16801;53.562;10.038;2022-10-17T03:58:32;101868.16;;;14.26;80.55
29941;BME280;16801;53.562;10.038;2022-10-17T04:01:54;101854.59;;;14.26;80.52
29941;BME280;16801;53.562;10.038;2022-10-17T04:05:16;101854.59;;;14.26;80.30
29941;BME280;16801;53.562;10.038;2022-10-17T04:08:37;101849.16;;;14.26;80.67
29941;BME280;16801;53.562;10.038;2022-10-17T04:12:04;101856.97;;;14.20;81.30
29941;BME280;16801;53.562;10.038;2022-10-17T04:15:26;101864.09;;;14.21;81.15
29941;BME280;16801;53.562;10.038;2022-10-17T04:18:51;101853.78;;;14.15;81.35
29941;BME280;16801;53.562;10.038;2022-10-17T04:22:14;101850.38;;;14.13;81.34
29941;BME280;16801;53.562;10.038;2022-10-17T04:25:35;101859.38;;;14.13;80.89
29941;BME280;16801;53.562;10.038;2022-10-17T04:28:56;101858.16;;;14.06;81.03
29941;BME280;16801;53.562;10.038;2022-10-17T04:32:17;101853.47;;;14.08;81.11
29941;BME280;16801;53.562;10.038;2022-10-17T04:35:42;101854.34;;;14.09;81.09
29941;BME280;16801;53.562;10.038;2022-10-17T04:39:04;101847.47;;;14.05;81.07
29941;BME280;16801;53.562;10.038;2022-10-17T04:42:27;101844.28;;;14.20;82.19
29941;BME280;16801;53.562;10.038;2022-10-17T04:45:49;101842.00;;;14.25;82.18
29941;BME280;16801;53.562;10.038;2022-10-17T04:49:10;101842.56;;;14.19;81.66
29941;BME280;16801;53.562;10.038;2022-10-17T04:52:33;101842.91;;;14.05;80.84
29941;BME280;16801;53.562;10.038;2022-10-17T04:55:57;101835.88;;;13.93;81.82
29941;BME280;16801;53.562;10.038;2022-10-17T04:59:18;101840.81;;;13.88;82.00
29941;BME280;16801;53.562;10.038;2022-10-17T05:02:44;101827.06;;;13.80;82.15
29941;BME280;16801;53.562;10.038;2022-10-17T05:06:06;101831.78;;;13.78;82.61
29941;BME280;16801;53.562;10.038;2022-10-17T05:09:28;101835.28;;;13.69;82.77
29941;BME280;16801;53.562;10.038;2022-10-17T05:12:50;101840.69;;;13.69;82.89
29941;BME280;16801;53.562;10.038;2022-10-17T05:16:14;101835.41;;;13.68;82.62
29941;BME280;16801;53.562;10.038;2022-10-17T05:19:35;101838.66;;;13.61;83.01
29941;BME280;16801;53.562;10.038;2022-10-17T05:22:57;101829.91;;;13.58;83.34
29941;BME280;16801;53.562;10.038;2022-10-17T05:26:23;101828.34;;;13.55;83.15
29941;BME280;16801;53.562;10.038;2022-10-17T05:29:45;101832.41;;;13.50;82.95
29941;BME280;16801;53.562;10.038;2022-10-17T05:33:12;101830.25;;;13.44;83.32
29941;BME280;16801;53.562;10.038;2022-10-17T05:36:33;101835.31;;;13.37;83.44
29941;BME280;16801;53.562;10.038;2022-10-17T05:39:57;101833.63;;;13.36;83.34
29941;BME280;16801;53.562;10.038;2022-10-17T05:43:18;101832.06;;;13.23;83.66
29941;BME280;16801;53.562;10.038;2022-10-17T05:46:41;101827.38;;;13.25;83.73
29941;BME280;16801;53.562;10.038;2022-10-17T05:50:02;101834.66;;;13.24;83.47
29941;BME280;16801;53.562;10.038;2022-10-17T05:53:36;101837.63;;;13.21;83.57
29941;BME280;16801;53.562;10.038;2022-10-17T05:57:00;101829.66;;;12.98;84.59
29941;BME280;16801;53.562;10.038;2022-10-17T06:00:24;101836.09;;;12.97;84.66
29941;BME280;16801;53.562;10.038;2022-10-17T06:03:52;101826.38;;;12.94;84.98
29941;BME280;16801;53.562;10.038;2022-10-17T06:07:13;101826.22;;;12.96;84.66
29941;BME280;16801;53.562;10.038;2022-10-17T06:10:36;101838.28;;;13.03;84.69
29941;BME280;16801;53.562;10.038;2022-10-17T06:13:57;101840.00;;;13.04;84.80
29941;BME280;16801;53.562;10.038;2022-10-17T06:17:21;101832.75;;;13.04;84.75
29941;BME280;16801;53.562;10.038;2022-10-17T06:20:43;101831.88;;;13.04;84.99
29941;BME280;16801;53.562;10.038;2022-10-17T06:24:04;101831.00;;;13.14;84.12
29941;BME280;16801;53.562;10.038;2022-10-17T06:27:28;101827.31;;;13.15;84.35
29941;BME280;16801;53.562;10.038;2022-10-17T06:30:49;101826.00;;;13.10;84.48
29941;BME280;16801;53.562;10.038;2022-10-17T06:34:10;101827.66;;;13.22;84.23
29941;BME280;16801;53.562;10.038;2022-10-17T06:37:34;101831.69;;;13.27;84.13
29941;BME280;16801;53.562;10.038;2022-10-17T06:41:02;101828.91;;;13.18;84.90
29941;BME280;16801;53.562;10.038;2022-10-17T06:44:26;101813.06;;;13.34;84.11
29941;BME280;16801;53.562;10.038;2022-10-17T06:48:08;101824.75;;;13.34;84.08
29941;BME280;16801;53.562;10.038;2022-10-17T06:51:55;101819.41;;;13.44;83.96
29941;BME280;16801;53.562;10.038;2022-10-17T06:55:27;101837.63;;;13.42;84.53
29941;BME280;16801;53.562;10.038;2022-10-17T06:59:10;101825.50;;;13.57;84.28
29941;BME280;16801;53.562;10.038;2022-10-17T07:02:34;101821.28;;;13.64;84.12
29941;BME280;16801;53.562;10.038;2022-10-17T07:05:55;101826.34;;;13.78;83.57
29941;BME280;16801;53.562;10.038;2022-10-17T07:09:17;101828.50;;;14.05;82.71
29941;BME280;16801;53.562;10.038;2022-10-17T07:12:39;101820.03;;;13.98;83.05
29941;BME280;16801;53.562;10.038;2022-10-17T07:16:00;101820.91;;;13.99;83.13
29941;BME280;16801;53.562;10.038;2022-10-17T07:19:22;101829.00;;;14.19;82.94
29941;BME280;16801;53.562;10.038;2022-10-17T07:22:43;101833.84;;;14.46;82.22
29941;BME280;16801;53.562;10.038;2022-10-17T07:26:07;101837.31;;;14.58;81.92
29941;BME280;16801;53.562;10.038;2022-10-17T07:29:31;101847.03;;;14.60;81.83
29941;BME280;16801;53.562;10.038;2022-10-17T07:32:58;101863.03;;;14.73;82.01
29941;BME280;16801;53.562;10.038;2022-10-17T07:36:19;101852.31;;;14.62;82.33
29941;BME280;16801;53.562;10.038;2022-10-17T07:39:41;101845.50;;;14.77;81.93
29941;BME280;16801;53.562;10.038;2022-10-17T07:43:02;101845.66;;;14.85;81.58
29941;BME280;16801;53.562;10.038;2022-10-17T07:46:26;101854.19;;;14.71;82.26
29941;BME280;16801;53.562;10.038;2022-10-17T07:49:47;101847.19;;;14.68;83.02
29941;BME280;16801;53.562;10.038;2022-10-17T07:53:08;101844.34;;;14.79;82.58
29941;BME280;16801;53.562;10.038;2022-10-17T07:56:28;101864.38;;;14.88;82.46
29941;BME280;16801;53.562;10.038;2022-10-17T07:59:49;101851.31;;;15.50;80.47
29941;BME280;16801;53.562;10.038;2022-10-17T08:03:11;101860.69;;;15.94;79.03
29941;BME280;16801;53.562;10.038;2022-10-17T08:06:32;101857.13;;;15.93;78.94
29941;BME280;16801;53.562;10.038;2022-10-17T08:09:53;101853.94;;;16.08;78.72
29941;BME280;16801;53.562;10.038;2022-10-17T08:13:14;101841.94;;;16.37;77.53
29941;BME280;16801;53.562;10.038;2022-10-17T08:16:35;101840.75;;;16.40;77.53
29941;BME280;16801;53.562;10.038;2022-10-17T08:19:57;101837.28;;;16.11;78.17
29941;BME280;16801;53.562;10.038;2022-10-17T08:23:18;101841.63;;;16.04;79.37
29941;BME280;16801;53.562;10.038;2022-10-17T08:26:39;101832.00;;;16.19;78.95
29941;BME280;16801;53.562;10.038;2022-10-17T08:30:00;101832.81;;;16.29;78.53
29941;BME280;16801;53.562;10.038;2022-10-17T08:33:21;101827.53;;;16.54;78.10
29941;BME280;16801;53.562;10.038;2022-10-17T08:36:43;101816.06;;;16.60;78.20
29941;BME280;16801;53.562;10.038;2022-10-17T08:40:05;101824.38;;;16.59;78.58
29941;BME280;16801;53.562;10.038;2022-10-17T08:43:47;101820.16;;;16.92;77.56
29941;BME280;16801;53.562;10.038;2022-10-17T08:47:14;101812.13;;;16.72;78.24
29941;BME280;16801;53.562;10.038;2022-10-17T08:50:37;101818.03;;;16.86;77.61
29941;BME280;16801;53.562;10.038;2022-10-17T08:54:08;101813.69;;;16.93;77.82
29941;BME280;16801;53.562;10.038;2022-10-17T08:57:31;101814.41;;;17.12;77.33
29941;BME280;16801;53.562;10.038;2022-10-17T09:01:02;101810.44;;;17.24;76.71
29941;BME280;16801;53.562;10.038;2022-10-17T09:04:49;101834.03;;;17.69;75.53
29941;BME280;16801;53.562;10.038;2022-10-17T09:08:24;101838.22;;;17.63;75.99
29941;BME280;16801;53.562;10.038;2022-10-17T09:12:03;101845.53;;;18.65;72.34
29941;BME280;16801;53.562;10.038;2022-10-17T09:15:48;101834.16;;;18.86;71.93
29941;BME280;16801;53.562;10.038;2022-10-17T09:19:19;101835.28;;;19.25;70.06
29941;BME280;16801;53.562;10.038;2022-10-17T09:22:46;101820.44;;;20.00;67.93
29941;BME280;16801;53.562;10.038;2022-10-17T09:26:11;101822.69;;;19.64;69.08
29941;BME280;16801;53.562;10.038;2022-10-17T09:29:43;101829.03;;;19.65;68.51
29941;BME280;16801;53.562;10.038;2022-10-17T09:33:10;101822.78;;;19.06;71.22
29941;BME280;16801;53.562;10.038;2022-10-17T09:36:33;101837.63;;;18.96;72.31
29941;BME280;16801;53.562;10.038;2022-10-17T09:39:54;101841.84;;;18.82;73.50
29941;BME280;16801;53.562;10.038;2022-10-17T09:43:15;101839.09;;;19.40;71.63
29941;BME280;16801;53.562;10.038;2022-10-17T09:46:37;101829.47;;;19.20;72.27
29941;BME280;16801;53.562;10.038;2022-10-17T09:50:00;101824.19;;;19.27;72.47
29941;BME280;16801;53.562;10.038;2022-10-17T09:53:23;101814.94;;;20.00;70.56
29941;BME280;16801;53.562;10.038;2022-10-17T09:56:58;101816.88;;;20.85;67.76
29941;BME280;16801;53.562;10.038;2022-10-17T10:00:22;101821.47;;;19.91;70.91
29941;BME280;16801;53.562;10.038;2022-10-17T10:03:44;101827.81;;;19.51;72.63
29941;BME280;16801;53.562;10.038;2022-10-17T10:07:10;101821.16;;;19.46;73.24
29941;BME280;16801;53.562;10.038;2022-10-17T10:10:32;101828.00;;;19.58;73.35
29941;BME280;16801;53.562;10.038;2022-10-17T10:13:53;101824.50;;;20.12;71.09
29941;BME280;16801;53.562;10.038;2022-10-17T10:17:26;101830.84;;;20.05;72.03
29941;BME280;16801;53.562;10.038;2022-10-17T10:21:02;101832.41;;;19.91;72.54
29941;BME280;16801;53.562;10.038;2022-10-17T10:24:23;101839.06;;;20.05;72.01
29941;BME280;16801;53.562;10.038;2022-10-17T10:27:45;101835.38;;;20.52;70.75
29941;BME280;16801;53.562;10.038;2022-10-17T10:31:08;101840.72;;;20.77;69.37
29941;BME280;16801;53.562;10.038;2022-10-17T10:34:29;101843.41;;;21.23;68.07
29941;BME280;16801;53.562;10.038;2022-10-17T10:37:54;101839.00;;;21.37;68.03
29941;BME280;16801;53.562;10.038;2022-10-17T10:41:16;101846.75;;;21.33;67.67
29941;BME280;16801;53.562;10.038;2022-10-17T10:44:37;101839.06;;;20.98;68.84
29941;BME280;16801;53.562;10.038;2022-10-17T10:48:02;101835.41;;;20.36;71.82
29941;BME280;16801;53.562;10.038;2022-10-17T10:51:29;101837.00;;;20.15;72.70
29941;BME280;16801;53.562;10.038;2022-10-17T10:55:01;101834.44;;;19.97;73.32
29941;BME280;16801;53.562;10.038;2022-10-17T10:58:32;101840.81;;;19.89;73.80
29941;BME280;16801;53.562;10.038;2022-10-17T11:01:57;101843.34;;;19.91;74.20
29941;BME280;16801;53.562;10.038;2022-10-17T11:05:25;101857.22;;;19.89;74.46
29941;BME280;16801;53.562;10.038;2022-10-17T11:08:59;101852.63;;;19.90;73.99
29941;BME280;16801;53.562;10.038;2022-10-17T11:12:27;101851.56;;;19.99;72.36
29941;BME280;16801;53.562;10.038;2022-10-17T11:15:53;101849.66;;;20.08;72.45
29941;BME280;16801;53.562;10.038;2022-10-17T11:19:22;101840.75;;;20.14;72.06
29941;BME280;16801;53.562;10.038;2022-10-17T11:22:47;101859.56;;;20.17;71.88
29941;BME280;16801;53.562;10.038;2022-10-17T11:26:12;101852.91;;;20.27;71.34
29941;BME280;16801;53.562;10.038;2022-10-17T11:29:39;101851.31;;;20.41;70.83
29941;BME280;16801;53.562;10.038;2022-10-17T11:33:02;101859.38;;;20.34;70.79
29941;BME280;16801;53.562;10.038;2022-10-17T11:36:28;101862.13;;;20.34;70.76
29941;BME280;16801;53.562;10.038;2022-10-17T11:39:53;101857.16;;;20.38;70.94
29941;BME280;16801;53.562;10.038;2022-10-17T11:43:18;101853.72;;;20.44;70.64
29941;BME280;16801;53.562;10.038;2022-10-17T11:46:41;101847.38;;;20.43;70.48
29941;BME280;16801;53.562;10.038;2022-10-17T11:50:15;101838.00;;;20.38;70.62
29941;BME280;16801;53.562;10.038;2022-10-17T11:53:45;101843.47;;;20.30;70.96
29941;BME280;16801;53.562;10.038;2022-10-17T11:57:17;101832.19;;;20.25;71.58
29941;BME280;16801;53.562;10.038;2022-10-17T12:00:50;101819.88;;;20.13;71.74
29941;BME280;16801;53.562;10.038;2022-10-17T12:04:23;101856.19;;;20.07;72.85
29941;BME280;16801;53.562;10.038;2022-10-17T12:07:49;101877.75;;;19.85;74.60
29941;BME280;16801;53.562;10.038;2022-10-17T12:11:20;101871.06;;;19.72;76.15
29941;BME280;16801;53.562;10.038;2022-10-17T12:14:44;101882.53;;;19.67;76.67
29941;BME280;16801;53.562;10.038;2022-10-17T12:18:14;101892.63;;;19.67;76.70
29941;BME280;16801;53.562;10.038;2022-10-17T12:21:55;101900.50;;;19.54;77.36
29941;BME280;16801;53.562;10.038;2022-10-17T12:25:18;101900.63;;;19.44;77.77
29941;BME280;16801;53.562;10.038;2022-10-17T12:28:41;101924.72;;;19.41;77.52
29941;BME280;16801;53.562;10.038;2022-10-17T12:32:09;101903.22;;;19.38;77.73
29941;BME280;16801;53.562;10.038;2022-10-17T12:35:33;101883.38;;;19.36;78.28
29941;BME280;16801;53.562;10.038;2022-10-17T12:42:50;101879.59;;;19.45;78.01
29941;BME280;16801;53.562;10.038;2022-10-17T12:46:11;101893.47;;;19.43;78.49
29941;BME280;16801;53.562;10.038;2022-10-17T12:49:40;101903.22;;;19.38;78.71
29941;BME280;16801;53.562;10.038;2022-10-17T12:53:05;101903.03;;;19.39;78.54
29941;BME280;16801;53.562;10.038;2022-10-17T12:56:34;101916.19;;;19.36;78.68
29941;BME280;16801;53.562;10.038;2022-10-17T12:59:58;101913.38;;;19.28;78.78
29941;BME280;16801;53.562;10.038;2022-10-17T13:03:22;101922.44;;;19.20;79.03
29941;BME280;16801;53.562;10.038;2022-10-17T13:06:46;101925.34;;;19.19;79.62
29941;BME280;16801;53.562;10.038;2022-10-17T13:10:18;101930.59;;;19.12;79.45
29941;BME280;16801;53.562;10.038;2022-10-17T13:13:41;101952.44;;;19.04;80.17
29941;BME280;16801;53.562;10.038;2022-10-17T13:17:05;101994.94;;;18.98;80.77
29941;BME280;16801;53.562;10.038;2022-10-17T13:20:29;101995.34;;;18.78;82.84
29941;BME280;16801;53.562;10.038;2022-10-17T13:23:50;101955.53;;;18.24;87.77
29941;BME280;16801;53.562;10.038;2022-10-17T13:27:27;101927.00;;;18.18;88.79
29941;BME280;16801;53.562;10.038;2022-10-17T13:30:48;101936.19;;;18.17;90.15
29941;BME280;16801;53.562;10.038;2022-10-17T13:34:17;101941.59;;;18.09;90.49
29941;BME280;16801;53.562;10.038;2022-10-17T13:37:38;101953.38;;;18.10;90.72
29941;BME280;16801;53.562;10.038;2022-10-17T13:41:01;101948.16;;;17.99;91.79
29941;BME280;16801;53.562;10.038;2022-10-17T13:44:24;101945.97;;;18.02;91.78
29941;BME280;16801;53.562;10.038;2022-10-17T13:47:45;101967.72;;;17.94;92.20
29941;BME280;16801;53.562;10.038;2022-10-17T13:51:08;101983.75;;;17.89;93.05
29941;BME280;16801;53.562;10.038;2022-10-17T13:54:35;102003.06;;;17.78;93.44
29941;BME280;16801;53.562;10.038;2022-10-17T13:58:08;102000.41;;;17.69;94.60
29941;BME280;16801;53.562;10.038;2022-10-17T14:01:29;101998.75;;;17.76;94.18
29941;BME280;16801;53.562;10.038;2022-10-17T14:04:59;101973.22;;;17.77;94.47
29941;BME280;16801;53.562;10.038;2022-10-17T14:08:21;101968.06;;;17.74;94.58
29941;BME280;16801;53.562;10.038;2022-10-17T14:11:43;101979.44;;;17.69;94.83
29941;BME280;16801;53.562;10.038;2022-10-17T14:15:05;101972.44;;;17.67;95.14
29941;BME280;16801;53.562;10.038;2022-10-17T14:18:29;101961.53;;;17.67;95.47
29941;BME280;16801;53.562;10.038;2022-10-17T14:21:52;101944.13;;;17.68;95.26
29941;BME280;16801;53.562;10.038;2022-10-17T14:25:30;101939.22;;;17.71;94.98
29941;BME280;16801;53.562;10.038;2022-10-17T14:29:03;101943.44;;;17.83;94.79
29941;BME280;16801;53.562;10.038;2022-10-17T14:32:25;101940.31;;;17.78;94.47
29941;BME280;16801;53.562;10.038;2022-10-17T14:35:48;101949.53;;;17.77;94.79
29941;BME280;16801;53.562;10.038;2022-10-17T14:39:17;101959.94;;;17.82;94.63
29941;BME280;16801;53.562;10.038;2022-10-17T14:42:40;101974.63;;;17.81;94.72
29941;BME280;16801;53.562;10.038;2022-10-17T14:46:02;101989.19;;;17.72;95.35
29941;BME280;16801;53.562;10.038;2022-10-17T14:49:33;101998.38;;;17.71;95.58
29941;BME280;16801;53.562;10.038;2022-10-17T14:52:59;102015.38;;;17.65;95.75
29941;BME280;16801;53.562;10.038;2022-10-17T14:56:22;102020.34;;;17.69;95.65
29941;BME280;16801;53.562;10.038;2022-10-17T14:59:44;102031.66;;;17.74;95.27
29941;BME280;16801;53.562;10.038;2022-10-17T15:03:05;102030.97;;;17.72;95.52
29941;BME280;16801;53.562;10.038;2022-10-17T15:06:28;102032.28;;;17.68;95.93
29941;BME280;16801;53.562;10.038;2022-10-17T15:09:51;102038.72;;;17.67;95.56
29941;BME280;16801;53.562;10.038;2022-10-17T15:13:12;102049.81;;;17.66;95.57
29941;BME280;16801;53.562;10.038;2022-10-17T15:16:35;102054.00;;;17.60;96.08
29941;BME280;16801;53.562;10.038;2022-10-17T15:19:58;102059.16;;;17.63;96.14
29941;BME280;16801;53.562;10.038;2022-10-17T15:23:19;102057.44;;;17.62;96.06
29941;BME280;16801;53.562;10.038;2022-10-17T15:26:40;102063.06;;;17.61;96.29
29941;BME280;16801;53.562;10.038;2022-10-17T15:30:01;102068.66;;;17.59;96.22
29941;BME280;16801;53.562;10.038;2022-10-17T15:33:23;102075.84;;;17.60;96.33
29941;BME280;16801;53.562;10.038;2022-10-17T15:36:48;102079.25;;;17.62;96.15
29941;BME280;16801;53.562;10.038;2022-10-17T15:40:13;102076.44;;;17.54;96.38
29941;BME280;16801;53.562;10.038;2022-10-17T15:43:34;102083.91;;;17.52;96.46
29941;BME280;16801;53.562;10.038;2022-10-17T15:46:55;102080.47;;;17.50;96.24
29941;BME280;16801;53.562;10.038;2022-10-17T15:50:18;102074.88;;;17.51;95.75
29941;BME280;16801;53.562;10.038;2022-10-17T15:53:40;102091.94;;;17.53;95.35
29941;BME280;16801;53.562;10.038;2022-10-17T15:57:01;102088.66;;;17.50;95.22
29941;BME280;16801;53.562;10.038;2022-10-17T16:00:23;102089.63;;;17.49;95.16
29941;BME280;16801;53.562;10.038;2022-10-17T16:03:45;102090.06;;;17.44;95.02
29941;BME280;16801;53.562;10.038;2022-10-17T16:07:10;102093.50;;;17.46;94.26
29941;BME280;16801;53.562;10.038;2022-10-17T16:10:38;102095.06;;;17.49;94.20
29941;BME280;16801;53.562;10.038;2022-10-17T16:14:02;102091.66;;;17.47;94.07
29941;BME280;16801;53.562;10.038;2022-10-17T16:17:23;102091.81;;;17.45;94.24
29941;BME280;16801;53.562;10.038;2022-10-17T16:20:44;102099.72;;;17.39;94.66
29941;BME280;16801;53.562;10.038;2022-10-17T16:24:08;102100.44;;;17.41;95.21
29941;BME280;16801;53.562;10.038;2022-10-17T16:27:30;102102.13;;;17.42;94.73
29941;BME280;16801;53.562;10.038;2022-10-17T16:30:51;102107.47;;;17.43;94.99
29941;BME280;16801;53.562;10.038;2022-10-17T16:34:13;102106.59;;;17.43;95.10
29941;BME280;16801;53.562;10.038;2022-10-17T16:37:34;102107.75;;;17.40;95.20
29941;BME280;16801;53.562;10.038;2022-10-17T16:40:57;102117.56;;;17.33;95.63
29941;BME280;16801;53.562;10.038;2022-10-17T16:44:17;102110.09;;;17.35;95.44
29941;BME280;16801;53.562;10.038;2022-10-17T16:47:38;102116.09;;;17.29;95.91
29941;BME280;16801;53.562;10.038;2022-10-17T16:51:00;102117.84;;;17.30;95.59
29941;BME280;16801;53.562;10.038;2022-10-17T16:54:21;102119.16;;;17.26;95.72
29941;BME280;16801;53.562;10.038;2022-10-17T16:57:44;102127.16;;;17.28;96.17
29941;BME280;16801;53.562;10.038;2022-10-17T17:01:08;102123.19;;;17.22;96.00
29941;BME280;16801;53.562;10.038;2022-10-17T17:04:30;102141.41;;;17.22;95.67
29941;BME280;16801;53.562;10.038;2022-10-17T17:07:50;102140.69;;;17.20;95.84
29941;BME280;16801;53.562;10.038;2022-10-17T17:11:13;102145.13;;;17.21;95.59
29941;BME280;16801;53.562;10.038;2022-10-17T17:14:35;102148.69;;;17.21;95.77
29941;BME280;16801;53.562;10.038;2022-10-17T17:17:57;102145.97;;;17.21;95.80
29941;BME280;16801;53.562;10.038;2022-10-17T17:21:18;102147.59;;;17.14;96.29
29941;BME280;16801;53.562;10.038;2022-10-17T17:24:39;102156.59;;;17.15;96.71
29941;BME280;16801;53.562;10.038;2022-10-17T17:28:00;102155.34;;;17.19;96.77
29941;BME280;16801;53.562;10.038;2022-10-17T17:31:24;102152.13;;;17.23;96.84
29941;BME280;16801;53.562;10.038;2022-10-17T17:34:45;102164.94;;;17.23;96.58
29941;BME280;16801;53.562;10.038;2022-10-17T17:38:06;102158.91;;;17.19;96.80
29941;BME280;16801;53.562;10.038;2022-10-17T17:41:27;102159.06;;;17.18;96.78
29941;BME280;16801;53.562;10.038;2022-10-17T17:44:48;102159.22;;;17.16;96.78